Bryan, Texas
Current Conditions -  °F | °C
As of 3:15 PM on Monday 22 Dec 2014 (Local Time) from KCFD Reporting Station
Clear Clear  
Wind Chill: 71°   Ceiling: Unl
Heat Index: 71°   Visibility: 10mi
Dew Point: 56°   Wind: 10mph
Humidity: 58%   Direction: 190°S
Pressure: 29.61"   Gusts: 20mph
Location:  30.67°N, 96.37°W
Report Text: KCFD 222115Z AUTO 19009G17KT 10SM CLR 22/13 A2961 RMK AO2 T02170132
Loading
Personal Weather Stations






























Interactive Weather Map New forecast layout! Learn more

10-Day Weather Forecast

Advertisements
Track Severe Weather on mobile